Time;durP1;ratioP1;P1;durP2;ratioP2;P2;SDS_P1;SDS_P2;PMS_P1;PMS_P2;Temp;Humidity;BMP_temperature;BMP_pressure;BME280_temperature;BME280_humidity;BME280_pressure;Samples;Min_cycle;Max_cycle;Signal;HPM_P1;HPM_P2
2023/08/09 00:01:13;;;;;;;7.32;4.47;;;;;;;13.92;100.00;101137.25;5309024;28;20023;-68
2023/08/09 00:03:44;;;;;;;7.40;4.50;;;;;;;13.83;100.00;101146.97;5316392;28;20028;-68
2023/08/09 00:06:16;;;;;;;8.25;5.10;;;;;;;13.87;100.00;101143.03;5316472;28;20057;-68
2023/08/09 00:08:47;;;;;;;8.95;5.43;;;;;;;14.06;100.00;101141.47;5315547;28;20035;-68
2023/08/09 00:11:19;;;;;;;13.80;6.93;;;;;;;14.00;100.00;101142.84;5310761;28;20374;-68
2023/08/09 00:13:50;;;;;;;10.60;5.68;;;;;;;14.07;100.00;101152.03;5301708;28;20531;-68
2023/08/09 00:16:22;;;;;;;8.85;5.47;;;;;;;14.06;100.00;101144.16;5307852;28;20044;-67
2023/08/09 00:18:53;;;;;;;7.10;5.18;;;;;;;14.12;100.00;101154.34;5315594;28;20137;-67
2023/08/09 00:21:25;;;;;;;5.78;4.68;;;;;;;14.02;100.00;101150.75;5315783;28;20038;-67
2023/08/09 00:23:56;;;;;;;8.77;5.47;;;;;;;14.04;100.00;101151.47;5307614;28;20036;-67
2023/08/09 00:26:27;;;;;;;5.40;4.30;;;;;;;14.00;100.00;101147.34;5313093;28;20039;-67
2023/08/09 00:28:59;;;;;;;6.47;4.32;;;;;;;13.99;100.00;101148.34;5316826;28;20027;-67
2023/08/09 00:31:30;;;;;;;6.35;4.50;;;;;;;14.07;100.00;101149.34;5316244;28;20100;-67
2023/08/09 00:34:02;;;;;;;5.63;4.38;;;;;;;13.95;100.00;101154.94;5318205;28;20545;-67
2023/08/09 00:36:34;;;;;;;6.60;5.35;;;;;;;14.04;100.00;101151.47;5319634;28;20043;-67
2023/08/09 00:39:06;;;;;;;9.80;5.28;;;;;;;14.07;100.00;101146.66;5305024;28;20020;-67
2023/08/09 00:41:37;;;;;;;6.35;5.13;;;;;;;14.03;100.00;101142.56;5320513;28;20072;-67
2023/08/09 00:44:09;;;;;;;7.93;5.65;;;;;;;14.09;100.00;101150.09;5315398;28;20489;-67
2023/08/09 00:46:40;;;;;;;8.20;4.88;;;;;;;14.03;100.00;101149.75;5321096;28;20026;-67
2023/08/09 00:49:12;;;;;;;8.73;5.78;;;;;;;14.10;100.00;101151.78;5306263;27;20028;-67
2023/08/09 00:51:44;;;;;;;8.55;5.43;;;;;;;14.11;100.00;101153.50;5315812;28;20402;-67
2023/08/09 00:54:17;;;;;;;8.75;5.53;;;;;;;14.17;100.00;101159.28;5319881;28;20024;-67
2023/08/09 00:56:48;;;;;;;7.90;5.63;;;;;;;14.17;100.00;101160.16;5315837;28;20032;-68
2023/08/09 00:59:20;;;;;;;9.07;5.90;;;;;;;14.11;100.00;101163.34;5318699;28;20460;-67
2023/08/09 01:01:51;;;;;;;7.93;5.70;;;;;;;14.09;100.00;101165.31;5310749;28;20027;-67
2023/08/09 01:04:22;;;;;;;7.65;5.40;;;;;;;14.14;100.00;101164.94;5304677;28;20067;-67
2023/08/09 01:07:06;;;;;;;8.90;6.22;;;;;;;14.18;100.00;101169.91;5309268;28;20020;-67
2023/08/09 01:09:44;;;;;;;7.32;5.55;;;;;;;14.20;100.00;101170.63;5308213;28;20040;-67
2023/08/09 01:12:41;;;;;;;8.77;6.25;;;;;;;14.18;100.00;101164.53;5316993;28;20028;-67
2023/08/09 01:15:18;;;;;;;7.43;5.72;;;;;;;14.14;100.00;101168.47;5316074;28;20020;-67
2023/08/09 01:17:52;;;;;;;7.95;5.63;;;;;;;14.09;100.00;101171.56;5307878;28;20508;-67
2023/08/09 01:20:25;;;;;;;11.40;6.53;;;;;;;14.12;100.00;101171.28;5320380;28;20465;-67
2023/08/09 01:23:03;;;;;;;7.78;5.75;;;;;;;14.16;100.00;101161.13;5316984;28;20024;-67
2023/08/09 01:25:35;;;;;;;8.00;5.68;;;;;;;14.17;100.00;101161.97;5317123;28;20031;-67
2023/08/09 01:28:06;;;;;;;8.25;5.57;;;;;;;14.15;100.00;101162.09;5314184;28;20470;-67
2023/08/09 01:30:38;;;;;;;7.40;5.50;;;;;;;14.09;100.00;101166.19;5313397;28;20027;-67
2023/08/09 01:33:09;;;;;;;9.60;6.35;;;;;;;14.20;100.00;101169.78;5317186;28;20523;-67
2023/08/09 01:35:49;;;;;;;8.98;5.65;;;;;;;14.18;100.00;101172.59;5316326;28;20023;-67
2023/08/09 01:38:26;;;;;;;8.25;5.05;;;;;;;14.24;100.00;101176.56;5317712;28;20036;-67
2023/08/09 01:40:58;;;;;;;6.20;4.75;;;;;;;14.12;100.00;101170.44;5317547;28;20069;-67
2023/08/09 01:43:30;;;;;;;6.65;5.10;;;;;;;14.15;100.00;101170.16;5314778;28;20032;-67
2023/08/09 01:46:01;;;;;;;7.53;5.43;;;;;;;14.11;100.00;101174.09;5315670;28;20035;-67
2023/08/09 01:48:33;;;;;;;6.75;4.55;;;;;;;14.04;100.00;101172.94;5316799;28;20367;-67
2023/08/09 01:51:04;;;;;;;8.00;5.13;;;;;;;13.97;100.00;101177.97;5319954;28;20290;-67
2023/08/09 01:53:36;;;;;;;8.50;5.63;;;;;;;13.85;100.00;101185.22;5314616;28;20036;-67
2023/08/09 01:56:07;;;;;;;24.80;6.72;;;;;;;13.83;100.00;101181.84;5316163;28;20020;-67
2023/08/09 01:58:39;;;;;;;7.25;5.07;;;;;;;13.93;100.00;101184.59;5313678;28;20965;-67
2023/08/09 02:01:11;;;;;;;6.03;4.60;;;;;;;13.88;100.00;101171.56;5315233;28;20395;-67
2023/08/09 02:03:43;;;;;;;14.77;6.63;;;;;;;13.87;100.00;101169.84;5311106;28;20032;-67
2023/08/09 02:06:14;;;;;;;6.57;4.85;;;;;;;13.80;100.00;101183.94;5314002;28;20030;-67
2023/08/09 02:08:45;;;;;;;9.40;5.20;;;;;;;13.66;100.00;101187.78;5311760;28;20044;-67
2023/08/09 02:11:17;;;;;;;7.00;4.82;;;;;;;13.64;100.00;101189.75;5306691;28;20510;-67
2023/08/09 02:13:48;;;;;;;11.35;5.15;;;;;;;13.64;100.00;101193.25;5316110;28;20035;-67
2023/08/09 02:16:20;;;;;;;14.10;5.80;;;;;;;13.46;100.00;101184.94;5313003;28;20073;-67
2023/08/09 02:18:51;;;;;;;20.90;6.30;;;;;;;13.43;100.00;101184.34;5312103;28;20023;-67
2023/08/09 02:21:23;;;;;;;45.10;10.10;;;;;;;13.37;100.00;101191.06;5307664;28;20110;-67
2023/08/09 02:23:54;;;;;;;18.02;6.82;;;;;;;13.32;100.00;101194.09;5318388;28;20031;-67
2023/08/09 02:26:27;;;;;;;6.00;4.50;;;;;;;13.44;100.00;101199.44;5309090;28;20055;-67
2023/08/09 02:28:58;;;;;;;6.00;4.70;;;;;;;13.42;100.00;101193.34;5314213;28;20408;-67
2023/08/09 02:31:31;;;;;;;8.38;5.72;;;;;;;13.45;100.00;101193.94;5315810;28;20016;-67
2023/08/09 02:34:02;;;;;;;7.78;5.32;;;;;;;13.45;100.00;101202.00;5312124;28;20036;-67
2023/08/09 02:36:34;;;;;;;8.02;4.90;;;;;;;13.37;100.00;101206.31;5307166;28;20028;-67
2023/08/09 02:39:05;;;;;;;120.43;16.65;;;;;;;13.28;100.00;101213.22;5316913;28;20102;-67
2023/08/09 02:41:38;;;;;;;11.45;6.25;;;;;;;13.31;100.00;101210.34;5308039;28;20051;-67
2023/08/09 02:44:09;;;;;;;29.95;8.70;;;;;;;13.28;100.00;101216.75;5308665;28;20023;-68
2023/08/09 02:46:41;;;;;;;40.38;10.02;;;;;;;13.16;100.00;101212.41;5318012;28;20495;-66
2023/08/09 02:49:12;;;;;;;80.82;15.88;;;;;;;13.21;100.00;101212.00;5316459;28;20055;-67
2023/08/09 02:51:44;;;;;;;55.63;12.35;;;;;;;13.13;100.00;101218.00;5316938;28;20024;-67
2023/08/09 02:54:15;;;;;;;74.20;12.70;;;;;;;13.11;100.00;101228.84;5302629;28;20031;-66
2023/08/09 02:56:46;;;;;;;8.95;6.25;;;;;;;13.18;100.00;101228.34;5310745;28;20030;-67
2023/08/09 02:59:18;;;;;;;11.57;6.57;;;;;;;13.21;100.00;101230.78;5310009;28;20031;-67
2023/08/09 03:01:49;;;;;;;7.47;6.07;;;;;;;13.20;100.00;101234.44;5307929;28;20028;-68
2023/08/09 03:04:21;;;;;;;102.03;19.65;;;;;;;13.12;100.00;101237.75;5310522;28;20027;-67
2023/08/09 03:06:52;;;;;;;96.28;16.15;;;;;;;13.10;100.00;101234.34;5313427;28;20335;-67
2023/08/09 03:09:24;;;;;;;11.18;5.97;;;;;;;13.02;100.00;101243.00;5316463;28;20058;-67
2023/08/09 03:11:55;;;;;;;8.75;6.13;;;;;;;12.97;100.00;101241.66;5310955;28;20032;-67
2023/08/09 03:14:27;;;;;;;21.25;8.20;;;;;;;13.07;100.00;101243.47;5310960;28;20035;-67
2023/08/09 03:16:58;;;;;;;8.07;5.75;;;;;;;13.09;100.00;101246.84;5308486;28;20035;-67
2023/08/09 03:19:30;;;;;;;9.20;6.05;;;;;;;13.09;100.00;101251.38;5306263;28;20453;-67
2023/08/09 03:22:01;;;;;;;28.92;9.45;;;;;;;13.04;100.00;101249.09;5315450;28;20111;-67
2023/08/09 03:24:33;;;;;;;23.58;8.38;;;;;;;12.89;100.00;101244.94;5316268;28;20023;-67
2023/08/09 03:27:05;;;;;;;30.92;9.98;;;;;;;12.95;100.00;101239.94;5310646;28;20027;-67
2023/08/09 03:29:36;;;;;;;28.42;9.80;;;;;;;12.92;100.00;101250.03;5310758;28;20026;-67
2023/08/09 03:32:08;;;;;;;23.92;8.75;;;;;;;12.86;100.00;101250.53;5317149;28;20061;-67
2023/08/09 03:34:39;;;;;;;8.30;6.30;;;;;;;12.94;100.00;101237.38;5305752;28;20020;-67
2023/08/09 03:37:11;;;;;;;8.48;6.45;;;;;;;12.98;100.00;101254.91;5317158;28;20020;-67
2023/08/09 03:39:42;;;;;;;11.15;7.60;;;;;;;12.89;100.00;101258.34;5310039;28;20047;-67
2023/08/09 03:42:14;;;;;;;10.65;7.60;;;;;;;12.91;100.00;101259.91;5309248;28;20016;-67
2023/08/09 03:44:45;;;;;;;9.48;7.00;;;;;;;12.90;100.00;101260.88;5314417;28;20439;-67
2023/08/09 03:47:17;;;;;;;10.38;7.72;;;;;;;12.84;100.00;101273.91;5315795;28;20023;-67
2023/08/09 03:49:48;;;;;;;10.40;7.53;;;;;;;12.87;100.00;101285.25;5314608;28;20207;-66
2023/08/09 03:52:20;;;;;;;11.70;7.63;;;;;;;12.87;100.00;101279.03;5307195;28;20115;-66
2023/08/09 03:54:52;;;;;;;43.53;11.55;;;;;;;12.94;100.00;101278.44;5317097;28;20048;-67
2023/08/09 03:57:23;;;;;;;79.95;16.88;;;;;;;12.88;100.00;101281.56;5314514;28;20023;-68
2023/08/09 03:59:55;;;;;;;207.82;28.13;;;;;;;12.83;100.00;101288.25;5315913;28;20124;-66
2023/08/09 04:02:26;;;;;;;15.48;8.98;;;;;;;12.87;100.00;101295.97;5311934;28;20037;-67
2023/08/09 04:04:58;;;;;;;183.88;28.35;;;;;;;12.77;100.00;101294.09;5322522;27;20358;-67
2023/08/09 04:07:29;;;;;;;12.85;8.57;;;;;;;12.69;100.00;101295.56;5319636;28;20439;-67
2023/08/09 04:10:01;;;;;;;57.53;13.20;;;;;;;12.63;100.00;101297.88;5314258;28;20051;-66
2023/08/09 04:12:33;;;;;;;74.40;14.90;;;;;;;12.57;100.00;101293.84;5300318;28;20478;-67
2023/08/09 04:15:06;;;;;;;11.55;7.93;;;;;;;12.51;100.00;101289.81;5322883;28;20016;-67
2023/08/09 04:17:37;;;;;;;11.10;7.72;;;;;;;12.45;100.00;101301.00;5315705;28;20073;-67
2023/08/09 04:20:11;;;;;;;48.53;12.32;;;;;;;12.49;100.00;101307.81;5320559;27;20370;-67
2023/08/09 04:22:43;;;;;;;;;;;;;;;12.68;100.00;101306.41;5325825;27;20023;-67
2023/08/09 04:25:15;;;;;;;74.18;14.98;;;;;;;12.58;100.00;101306.28;5320098;28;19922;-66
2023/08/09 04:27:46;;;;;;;46.10;11.85;;;;;;;12.51;100.00;101302.38;5309677;28;20413;-67
2023/08/09 04:30:18;;;;;;;27.10;10.27;;;;;;;12.53;100.00;101305.78;5306173;28;20035;-67
2023/08/09 04:32:49;;;;;;;13.90;9.57;;;;;;;12.62;100.00;101310.41;5315781;28;20050;-67
2023/08/09 04:35:20;;;;;;;9.63;8.38;;;;;;;12.66;100.00;101303.84;5317682;28;20032;-66
2023/08/09 04:37:52;;;;;;;9.60;8.32;;;;;;;12.68;100.00;101317.97;5322253;28;20385;-66
2023/08/09 04:40:25;;;;;;;40.65;13.00;;;;;;;12.66;100.00;101303.00;5316389;28;20497;-67
2023/08/09 04:42:56;;;;;;;14.98;9.90;;;;;;;12.56;100.00;101308.22;5318442;28;20030;-67
2023/08/09 04:45:27;;;;;;;25.52;11.95;;;;;;;12.62;100.00;101318.44;5309827;28;20023;-66
2023/08/09 04:48:02;;;;;;;24.05;12.38;;;;;;;12.71;100.00;101319.53;5316028;28;20106;-67
2023/08/09 04:50:33;;;;;;;;;;;;;;;12.77;100.00;101310.19;5313289;28;20462;-66
2023/08/09 04:53:04;;;;;;;;;;;;;;;12.81;100.00;101315.19;5317819;28;19976;-67
2023/08/09 04:55:36;;;;;;;;;;;;;;;12.80;100.00;101320.66;5314146;28;20190;-67
2023/08/09 04:58:08;;;;;;;;;;;;;;;12.79;100.00;101321.63;5314168;28;19911;-67
2023/08/09 05:00:39;;;;;;;;;;;;;;;12.80;100.00;101326.00;5318478;28;20060;-66
2023/08/09 05:03:11;;;;;;;;;;;;;;;12.80;100.00;101323.34;5310219;28;20011;-66
2023/08/09 05:05:43;;;;;;;;;;;;;;;12.83;100.00;101323.94;5314879;28;19919;-66
2023/08/09 05:08:15;;;;;;;;;;;;;;;12.84;100.00;101330.16;5318146;28;19919;-67
2023/08/09 05:10:46;;;;;;;;;;;;;;;12.88;100.00;101335.13;5319172;28;19930;-67
2023/08/09 05:13:17;;;;;;;;;;;;;;;12.92;100.00;101335.75;5315324;28;20003;-67
2023/08/09 05:15:48;;;;;;;;;;;;;;;12.95;100.00;101335.53;5316654;28;20316;-66
2023/08/09 05:18:20;;;;;;;;;;;;;;;13.00;100.00;101344.06;5313160;28;19916;-67
2023/08/09 05:20:51;;;;;;;;;;;;;;;13.08;100.00;101346.13;5321977;28;19907;-67
2023/08/09 05:23:22;;;;;;;;;;;;;;;13.14;100.00;101343.81;5321466;28;20341;-66
2023/08/09 05:25:54;;;;;;;;;;;;;;;13.22;100.00;101342.34;5319773;28;20046;-66
2023/08/09 05:28:25;;;;;;;;;;;;;;;13.31;100.00;101349.69;5315872;28;20392;-66
2023/08/09 05:30:56;;;;;;;;;;;;;;;13.39;100.00;101357.97;5314674;28;19923;-66
2023/08/09 05:33:27;;;;;;;;;;;;;;;13.44;100.00;101362.94;5316448;28;19916;-66
2023/08/09 05:35:59;;;;;;;;;;;;;;;13.49;100.00;101356.22;5315396;28;20682;-67
2023/08/09 05:38:31;;;;;;;;;;;;;;;13.55;100.00;101359.41;5302715;28;20366;-67
2023/08/09 05:41:02;;;;;;;;;;;;;;;13.58;100.00;101360.00;5311489;28;19923;-67
2023/08/09 05:43:33;;;;;;;;;;;;;;;13.63;100.00;101355.09;5320574;28;19923;-67
2023/08/09 05:46:04;;;;;;;;;;;;;;;13.67;100.00;101353.03;5316452;28;19919;-67
2023/08/09 05:48:37;;;;;;;;;;;;;;;13.72;100.00;101356.19;5321590;28;20322;-67
2023/08/09 05:51:08;;;;;;;;;;;;;;;13.77;100.00;101358.50;5312375;28;19911;-67
2023/08/09 05:53:39;;;;;;;;;;;;;;;13.77;100.00;101356.69;5313711;28;19937;-67
2023/08/09 05:56:10;;;;;;;;;;;;;;;13.80;100.00;101367.16;5319263;28;21201;-67
2023/08/09 05:58:42;;;;;;;;;;;;;;;13.83;100.00;101366.91;5319464;28;20327;-66
2023/08/09 06:01:14;;;;;;;;;;;;;;;13.83;100.00;101369.59;5309214;28;19971;-67
2023/08/09 06:03:45;;;;;;;;;;;;;;;13.85;100.00;101367.63;5319801;28;19915;-67
2023/08/09 06:06:16;;;;;;;;;;;;;;;13.88;100.00;101378.13;5318946;28;19918;-67
2023/08/09 06:08:47;;;;;;;;;;;;;;;13.94;100.00;101382.13;5315364;28;19920;-67
2023/08/09 06:11:19;;;;;;;;;;;;;;;13.97;100.00;101391.75;5308294;28;19916;-66
2023/08/09 06:13:50;;;;;;;;;;;;;;;13.96;100.00;101395.41;5310259;28;19990;-66
2023/08/09 06:16:22;;;;;;;;;;;;;;;13.89;100.00;101387.84;5318045;28;19919;-66
2023/08/09 06:18:53;;;;;;;;;;;;;;;13.98;100.00;101396.13;5311604;28;20002;-66
2023/08/09 06:21:24;;;;;;;;;;;;;;;13.97;100.00;101407.84;5314762;28;19916;-68
2023/08/09 06:23:55;;;;;;;;;;;;;;;13.96;100.00;101412.38;5307934;28;20343;-67
2023/08/09 06:26:26;;;;;;;;;;;;;;;14.01;100.00;101418.19;5316668;27;20301;-67
2023/08/09 06:28:58;;;;;;;;;;;;;;;13.97;100.00;101424.78;5311514;28;19923;-67
2023/08/09 06:31:29;;;;;;;;;;;;;;;14.05;100.00;101416.94;5293002;28;20362;-67
2023/08/09 06:34:01;;;;;;;;;;;;;;;14.14;100.00;101418.03;5304351;28;19968;-66
2023/08/09 06:36:32;;;;;;;;;;;;;;;14.24;100.00;101426.19;5309170;28;20003;-67
2023/08/09 06:39:03;;;;;;;;;;;;;;;14.35;100.00;101423.47;5309996;28;19962;-66
2023/08/09 06:41:35;;;;;;;;;;;;;;;14.36;100.00;101418.94;5311433;28;19916;-67
2023/08/09 06:44:06;;;;;;;;;;;;;;;14.37;100.00;101424.19;5305472;27;19919;-69
2023/08/09 06:46:38;;;;;;;;;;;;;;;14.40;100.00;101431.13;5308831;27;20007;-66
2023/08/09 06:49:09;;;;;;;;;;;;;;;14.46;100.00;101425.25;5315479;27;20014;-67
2023/08/09 06:51:41;;;;;;;;;;;;;;;14.56;100.00;101428.03;5318336;28;20349;-67
2023/08/09 06:54:13;;;;;;;;;;;;;;;14.60;100.00;101438.41;5309486;28;19919;-67
2023/08/09 06:56:44;;;;;;;;;;;;;;;14.68;100.00;101440.44;5305923;28;19922;-67
2023/08/09 06:59:15;;;;;;;;;;;;;;;14.75;100.00;101440.78;5311267;28;19922;-66
2023/08/09 07:01:48;;;;;;;;;;;;;;;14.84;100.00;101438.16;5304132;28;19912;-67
2023/08/09 07:04:19;;;;;;;;;;;;;;;14.87;100.00;101454.00;5315073;27;19915;-67
2023/08/09 07:06:51;;;;;;;;;;;;;;;14.88;100.00;101460.22;5318479;28;19922;-66
2023/08/09 07:09:22;;;;;;;;;;;;;;;14.89;100.00;101453.88;5319587;27;19919;-67
2023/08/09 07:11:54;;;;;;;;;;;;;;;14.97;100.00;101459.44;5312484;28;19912;-67
2023/08/09 07:14:25;;;;;;;;;;;;;;;15.08;100.00;101459.38;5311835;28;20281;-67
2023/08/09 07:16:56;;;;;;;;;;;;;;;15.14;100.00;101455.31;5310194;28;19915;-67
2023/08/09 07:19:27;;;;;;;;;;;;;;;15.13;100.00;101461.69;5319756;27;19911;-67
2023/08/09 07:21:59;;;;;;;;;;;;;;;15.23;100.00;101467.13;5315886;28;20085;-67
2023/08/09 07:24:30;;;;;;;;;;;;;;;15.32;100.00;101465.47;5312591;28;20385;-67
2023/08/09 07:27:02;;;;;;;;;;;;;;;15.37;100.00;101469.47;5308885;28;20362;-67
2023/08/09 07:29:33;;;;;;;;;;;;;;;15.30;100.00;101465.59;5299793;28;20348;-67
2023/08/09 07:32:04;;;;;;;;;;;;;;;15.33;100.00;101464.50;5319348;28;19911;-67
2023/08/09 07:34:36;;;;;;;;;;;;;;;15.27;100.00;101466.72;5309714;28;19976;-67
2023/08/09 07:37:07;;;;;;;;;;;;;;;15.36;100.00;101478.53;5311610;28;19908;-67
2023/08/09 07:39:39;;;;;;;;;;;;;;;15.44;100.00;101478.69;5302658;28;19916;-67
2023/08/09 07:42:10;;;;;;;;;;;;;;;15.51;100.00;101483.53;5309209;28;19999;-67
2023/08/09 07:44:41;;;;;;;;;;;;;;;15.52;100.00;101482.56;5312671;28;20373;-67
2023/08/09 07:47:12;;;;;;;;;;;;;;;15.50;100.00;101485.38;5318482;28;19922;-67
2023/08/09 07:49:44;;;;;;;;;;;;;;;15.52;100.00;101485.25;5310928;28;19927;-67
2023/08/09 07:52:15;;;;;;;;;;;;;;;15.59;100.00;101495.34;5309495;28;19911;-67
2023/08/09 07:54:47;;;;;;;;;;;;;;;15.62;100.00;101489.69;5310403;28;19915;-67
2023/08/09 07:57:18;;;;;;;;;;;;;;;15.57;100.00;101494.63;5314932;28;19919;-66
2023/08/09 07:59:50;;;;;;;;;;;;;;;15.61;100.00;101496.06;5317256;28;20389;-67
2023/08/09 08:02:21;;;;;;;;;;;;;;;15.72;100.00;101500.47;5317566;28;19933;-67
2023/08/09 08:04:53;;;;;;;;;;;;;;;15.75;100.00;101497.56;5305175;28;19907;-67
2023/08/09 08:07:24;;;;;;;;;;;;;;;15.84;100.00;101502.13;5310461;28;20398;-67
2023/08/09 08:09:55;;;;;;;;;;;;;;;15.94;100.00;101496.78;5290522;28;19928;-67
2023/08/09 08:12:28;;;;;;;;;;;;;;;16.03;100.00;101511.25;5309954;28;19916;-67
2023/08/09 08:15:00;;;;;;;;;;;;;;;15.96;100.00;101505.56;5318395;28;20490;-67
2023/08/09 08:17:31;;;;;;;;;;;;;;;15.92;100.00;101509.53;5308919;28;19946;-67
2023/08/09 08:20:07;;;;;;;;;;;;;;;16.03;100.00;101519.31;5312720;28;19970;-67
2023/08/09 08:22:38;;;;;;;;;;;;;;;16.04;100.00;101515.66;5308346;28;20011;-67
2023/08/09 08:25:10;;;;;;;;;;;;;;;16.03;100.00;101516.63;5316553;28;20006;-67
2023/08/09 08:27:43;;;;;;;;;;;;;;;16.05;100.00;101520.03;5314741;28;19911;-67
2023/08/09 08:30:17;;;;;;;;;;;;;;;16.09;100.00;101521.50;5319557;28;20308;-67
2023/08/09 08:32:48;;;;;;;;;;;;;;;16.12;100.00;101531.97;5308563;28;20222;-67
2023/08/09 08:35:20;;;;;;;;;;;;;;;16.13;100.00;101522.91;5302177;28;20362;-67
2023/08/09 08:37:53;;;;;;;;;;;;;;;16.16;100.00;101528.00;5314445;28;20322;-67
2023/08/09 08:40:25;;;;;;;;;;;;;;;16.25;100.00;101532.56;5315659;28;19980;-67
2023/08/09 08:42:57;;;;;;;;;;;;;;;16.36;100.00;101528.94;5298188;28;20008;-67
2023/08/09 08:45:28;;;;;;;;;;;;;;;16.44;100.00;101531.78;5305321;28;19927;-67
2023/08/09 08:47:59;;;;;;;;;;;;;;;16.51;100.00;101533.91;5315815;28;19924;-67
2023/08/09 08:50:31;;;;;;;;;;;;;;;16.53;100.00;101537.31;5305004;28;20017;-68
2023/08/09 08:53:04;;;;;;;;;;;;;;;16.55;100.00;101541.59;5312025;28;19911;-67
2023/08/09 08:55:35;;;;;;;;;;;;;;;16.56;100.00;101540.56;5318602;28;20293;-67
2023/08/09 08:58:08;;;;;;;;;;;;;;;16.59;100.00;101545.69;5316545;28;19915;-67
2023/08/09 09:00:40;;;;;;;;;;;;;;;16.57;100.00;101542.28;5316095;28;19915;-67
2023/08/09 09:03:11;;;;;;;;;;;;;;;16.60;100.00;101547.38;5310569;28;20262;-67
2023/08/09 09:05:42;;;;;;;;;;;;;;;16.64;100.00;101551.53;5315716;28;19957;-67
2023/08/09 09:08:14;;;;;;;;;;;;;;;16.65;100.00;101560.47;5320865;28;20344;-68
2023/08/09 09:10:45;;;;;;;;;;;;;;;16.61;100.00;101557.19;5314993;28;20417;-67
2023/08/09 09:13:26;;;;;;;;;;;;;;;16.63;100.00;101560.59;5313743;28;20049;-67
2023/08/09 09:15:58;;;;;;;;;;;;;;;16.67;100.00;101551.22;5316803;28;20404;-67
2023/08/09 09:18:29;;;;;;;;;;;;;;;16.72;100.00;101556.22;5315288;28;20007;-67
2023/08/09 09:21:01;;;;;;;;;;;;;;;16.72;100.00;101550.84;5316458;27;19923;-68
2023/08/09 09:23:33;;;;;;;;;;;;;;;16.73;100.00;101551.69;5301353;28;20003;-67
2023/08/09 09:26:08;;;;;;;;;;;;;;;16.83;100.00;101556.09;5296141;28;20006;-68
2023/08/09 09:28:41;;;;;;;;;;;;;;;16.93;100.00;101560.66;5310432;28;20275;-68
2023/08/09 09:31:13;;;;;;;;;;;;;;;17.00;100.00;101562.63;5319386;28;20297;-68
2023/08/09 09:33:51;;;;;;;;;;;;;;;17.04;100.00;101564.03;5316797;28;19912;-67
2023/08/09 09:36:22;;;;;;;;;;;;;;;17.11;100.00;101568.91;5316999;28;20289;-68
2023/08/09 09:38:54;;;;;;;;;;;;;;;17.14;100.00;101580.22;5314155;28;19916;-68
2023/08/09 09:41:25;;;;;;;;;;;;;;;17.11;100.00;101571.59;5312730;28;19916;-68
2023/08/09 09:43:56;;;;;;;;;;;;;;;17.06;100.00;101563.91;5309934;28;20424;-67
2023/08/09 09:46:27;;;;;;;;;;;;;;;17.07;100.00;101564.75;5312941;28;20007;-68
2023/08/09 09:49:00;;;;;;;;;;;;;;;17.01;100.00;101556.25;5308681;28;19920;-67
2023/08/09 09:51:33;;;;;;;;;;;;;;;17.02;100.00;101555.25;5314478;28;20049;-67
2023/08/09 09:54:04;;;;;;;;;;;;;;;17.05;100.00;101552.28;5307235;28;19912;-67
2023/08/09 09:56:36;;;;;;;;;;;;;;;17.06;100.00;101545.03;5313261;28;19915;-67
2023/08/09 09:59:07;;;;;;;;;;;;;;;17.19;100.00;101550.16;5312746;28;20244;-67
2023/08/09 10:01:42;;;;;;;;;;;;;;;17.29;100.00;101559.06;5314743;28;19916;-67
2023/08/09 10:04:14;;;;;;;;;;;;;;;17.37;100.00;101553.81;5317865;28;19908;-67
2023/08/09 10:06:47;;;;;;;;;;;;;;;17.39;100.00;101561.75;5310680;28;20012;-67
2023/08/09 10:09:18;;;;;;;;;;;;;;;17.40;100.00;101553.50;5310067;28;19966;-68
2023/08/09 10:11:50;;;;;;;;;;;;;;;17.49;100.00;101556.34;5318398;28;20375;-67
2023/08/09 10:14:24;;;;;;;;;;;;;;;17.60;100.00;101542.66;5315251;27;20026;-67
2023/08/09 10:16:55;;;;;;;;;;;;;;;17.66;100.00;101547.50;5321161;28;20014;-68
2023/08/09 10:19:27;;;;;;;;;;;;;;;17.71;100.00;101553.31;5319356;28;19998;-67
2023/08/09 10:22:01;;;;;;;;;;;;;;;17.82;100.00;101546.88;5312557;28;19916;-68
2023/08/09 10:24:41;;;;;;;;;;;;;;;17.94;100.00;101545.72;5314297;28;19921;-68
2023/08/09 10:27:13;;;;;;;;;;;;;;;18.04;100.00;101559.16;5319388;28;20006;-68
2023/08/09 10:29:56;;;;;;;;;;;;;;;18.21;100.00;101571.88;5319066;28;20432;-67
2023/08/09 10:32:46;;;;;;;;;;;;;;;18.23;100.00;101569.03;5318796;28;19960;-67
2023/08/09 10:35:41;;;;;;;;;;;;;;;18.23;100.00;101561.78;5318333;28;20440;-68
2023/08/09 10:38:14;;;;;;;;;;;;;;;18.33;100.00;101568.97;5301785;28;19915;-68
2023/08/09 10:40:52;;;;;;;;;;;;;;;18.36;100.00;101574.09;5312731;28;20432;-68
2023/08/09 10:43:25;;;;;;;;;;;;;;;18.39;100.00;101581.91;5310833;28;19916;-68
2023/08/09 10:45:56;;;;;;;;;;;;;;;18.40;100.00;101576.34;5310563;28;20457;-68
2023/08/09 10:48:28;;;;;;;;;;;;;;;18.47;100.00;101578.47;5319364;28;19911;-68
2023/08/09 10:51:00;;;;;;;;;;;;;;;18.43;100.00;101577.91;5315295;28;19977;-68
2023/08/09 10:53:49;;;;;;;;;;;;;;;18.49;100.00;101582.69;5316263;28;20361;-68
2023/08/09 10:56:39;;;;;;;;;;;;;;;18.54;100.00;101582.22;5307870;28;19916;-68
2023/08/09 10:59:21;;;;;;;;;;;;;;;18.64;100.00;101576.75;5308195;28;20273;-68
2023/08/09 11:01:54;;;;;;;;;;;;;;;18.70;100.00;101579.72;5319525;28;19908;-68
2023/08/09 11:04:25;;;;;;;;;;;;;;;18.72;100.00;101572.31;5315474;28;20029;-68
2023/08/09 11:06:57;;;;;;;;;;;;;;;18.72;100.00;101574.16;5316206;28;19912;-68
2023/08/09 11:09:29;;;;;;;;;;;;;;;18.78;100.00;101579.81;5309397;28;19931;-68
2023/08/09 11:12:00;;;;;;;;;;;;;;;18.82;100.00;101571.44;5307049;28;19912;-68
2023/08/09 11:14:32;;;;;;;;;;;;;;;18.88;100.00;101560.81;5315619;28;19997;-68
2023/08/09 11:17:03;;;;;;;;;;;;;;;18.96;100.00;101563.59;5318278;27;19912;-68
2023/08/09 11:19:35;;;;;;;;;;;;;;;19.01;100.00;101571.28;5313695;28;20311;-68
2023/08/09 11:22:07;;;;;;;;;;;;;;;19.07;100.00;101580.63;5317799;28;19955;-68
2023/08/09 11:24:38;;;;;;;;;;;;;;;19.03;100.00;101574.66;5308701;28;20397;-68
2023/08/09 11:27:10;;;;;;;;;;;;;;;18.99;100.00;101566.00;5313070;28;19941;-68
2023/08/09 11:29:42;;;;;;;;;;;;;;;18.97;100.00;101573.44;5313933;28;19923;-68
2023/08/09 11:32:13;;;;;;;;;;;;;;;18.97;100.00;101581.53;5316583;28;20361;-68
2023/08/09 11:34:44;;;;;;;;;;;;;;;19.00;100.00;101581.25;5317491;28;19915;-68
2023/08/09 11:37:16;;;;;;;;;;;;;;;19.05;100.00;101583.47;5316566;28;19916;-68
2023/08/09 11:39:48;;;;;;;;;;;;;;;19.14;100.00;101579.00;5319374;28;20381;-68
2023/08/09 11:42:19;;;;;;;;;;;;;;;19.23;100.00;101571.78;5316887;28;19922;-68
2023/08/09 11:44:50;;;;;;;;;;;;;;;19.36;100.00;101575.78;5314056;28;20365;-68
2023/08/09 11:47:25;;;;;;;;;;;;;;;19.48;100.00;101586.34;5317260;28;20378;-69
2023/08/09 11:49:56;;;;;;;;;;;;;;;19.52;100.00;101590.44;5317120;28;19920;-68
2023/08/09 11:52:27;;;;;;;;;;;;;;;19.55;100.00;101580.16;5306767;28;19920;-68
2023/08/09 11:54:59;;;;;;;;;;;;;;;19.56;100.00;101589.16;5309666;28;19961;-68
2023/08/09 11:57:30;;;;;;;;;;;;;;;19.45;100.00;101581.28;5315432;28;20403;-68
2023/08/09 12:00:02;;;;;;;;;;;;;;;19.43;100.00;101588.72;5316278;28;19938;-68
2023/08/09 12:02:35;;;;;;;;;;;;;;;19.38;100.00;101597.28;5314430;28;19950;-69
2023/08/09 12:05:14;;;;;;;;;;;;;;;19.27;100.00;101600.22;5309731;28;19948;-68
2023/08/09 12:07:46;;;;;;;;;;;;;;;19.23;100.00;101594.28;5312684;28;19990;-69
2023/08/09 12:10:18;;;;;;;;;;;;;;;19.29;100.00;101590.97;5316701;28;20034;-69
2023/08/09 12:12:50;;;;;;;;;;;;;;;19.38;100.00;101597.28;5307140;28;19938;-68
2023/08/09 12:15:22;;;;;;;;;;;;;;;19.38;100.00;101590.00;5315502;28;19908;-68
2023/08/09 12:17:53;;;;;;;;;;;;;;;19.60;100.00;101593.22;5306556;28;19955;-68
2023/08/09 12:20:24;;;;;;;;;;;;;;;19.79;100.00;101608.47;5316944;28;19923;-68